Time;durP1;ratioP1;P1;durP2;ratioP2;P2;SDS_P1;SDS_P2;PMS_P1;PMS_P2;Temp;Humidity;BMP_temperature;BMP_pressure;BME280_temperature;BME280_humidity;BME280_pressure;Samples;Min_cycle;Max_cycle;Signal;HPM_P1;HPM_P2
2021/07/04 00:01:02;;;;;;;;;;;;;;;26.09;58.85;100672.44;5050005;28;1079;-66
2021/07/04 00:03:48;;;;;;;;;;;;;;;26.07;59.46;100669.94;5049765;28;1381;-67
2021/07/04 00:06:33;;;;;;;;;;;;;;;26.14;60.21;100670.25;5049698;28;1024;-66
2021/07/04 00:09:18;;;;;;;;;;;;;;;26.12;60.64;100666.84;5049330;28;627;-66
2021/07/04 00:12:04;;;;;;;;;;;;;;;26.06;61.05;100662.91;5049536;28;1278;-67
2021/07/04 00:14:50;;;;;;;;;;;;;;;26.05;61.04;100663.06;5049318;28;990;-66
2021/07/04 00:17:35;;;;;;;;;;;;;;;26.09;62.10;100662.63;5048809;28;1274;-67
2021/07/04 00:20:21;;;;;;;;;;;;;;;26.09;60.79;100653.75;5033978;28;1910;-66
2021/07/04 00:23:07;;;;;;;;;;;;;;;26.13;62.48;100652.53;5049041;28;1260;-66
2021/07/04 00:25:53;;;;;;;;;;;;;;;26.06;62.56;100656.72;5047834;28;1096;-66
2021/07/04 00:28:39;;;;;;;;;;;;;;;26.05;61.83;100665.72;5048632;28;1212;-66
2021/07/04 00:31:25;;;;;;;;;;;;;;;26.08;62.18;100658.25;5049019;28;1079;-65
2021/07/04 00:34:11;;;;;;;;;;;;;;;26.06;61.96;100651.38;5048728;28;667;-65
2021/07/04 00:36:57;;;;;;;;;;;;;;;26.05;61.53;100641.69;5049311;28;1248;-64
2021/07/04 00:39:42;;;;;;;;;;;;;;;25.99;62.60;100658.25;5047845;28;2250;-66
2021/07/04 00:42:28;;;;;;;;;;;;;;;26.00;61.62;100646.56;5048608;28;1296;-67
2021/07/04 00:45:16;;;;;;;;;;;;;;;26.03;61.48;100646.31;5048714;28;1039;-66
2021/07/04 00:48:02;;;;;;;;;;;;;;;26.04;61.81;100632.00;5047342;28;1367;-66
2021/07/04 00:50:48;;;;;;;;;;;;;;;26.03;61.10;100625.81;5048265;28;1125;-67
2021/07/04 00:53:33;;;;;;;;;;;;;;;26.00;60.82;100625.22;5046961;28;1346;-65
2021/07/04 00:56:18;;;;;;;;;;;;;;;25.98;60.96;100625.38;5048667;28;1038;-67
2021/07/04 00:59:04;;;;;;;;;;;;;;;25.98;60.78;100627.19;5048098;28;1959;-68
2021/07/04 01:01:49;;;;;;;;;;;;;;;25.94;60.48;100631.13;5048301;28;1292;-67
2021/07/04 01:04:34;;;;;;;;;;;;;;;25.97;59.79;100628.16;5046854;28;1129;-65
2021/07/04 01:07:20;;;;;;;;;;;;;;;25.93;59.48;100632.13;5046905;28;1290;-66
2021/07/04 01:10:06;;;;;;;;;;;;;;;25.91;59.99;100631.38;5048109;28;921;-67
2021/07/04 01:12:52;;;;;;;;;;;;;;;25.94;59.79;100629.28;5048215;28;1342;-67
2021/07/04 01:15:38;;;;;;;;;;;;;;;25.93;60.04;100627.59;5047981;28;882;-66
2021/07/04 01:18:23;;;;;;;;;;;;;;;25.93;59.65;100621.44;5047864;28;1491;-67
2021/07/04 01:21:09;;;;;;;;;;;;;;;25.90;59.20;100619.03;5048120;28;1140;-67
2021/07/04 01:23:55;;;;;;;;;;;;;;;25.92;58.95;100612.59;5047740;28;1385;-67
2021/07/04 01:26:40;;;;;;;;;;;;;;;25.83;59.68;100612.56;5048086;28;1277;-67
2021/07/04 01:29:25;;;;;;;;;;;;;;;25.85;58.98;100619.44;5047535;28;1036;-67
2021/07/04 01:32:11;;;;;;;;;;;;;;;25.87;58.76;100608.66;5047597;28;1336;-67
2021/07/04 01:34:56;;;;;;;;;;;;;;;25.79;58.49;100611.13;5048041;28;1106;-67
2021/07/04 01:37:44;;;;;;;;;;;;;;;25.81;58.40;100598.47;5047670;28;1287;-67
2021/07/04 01:40:33;;;;;;;;;;;;;;;25.87;57.74;100603.31;5046888;28;1922;-66
2021/07/04 01:43:19;;;;;;;;;;;;;;;25.80;57.74;100608.34;5046553;28;1343;-67
2021/07/04 01:46:04;;;;;;;;;;;;;;;25.82;57.46;100601.03;5047632;28;945;-66
2021/07/04 01:48:50;;;;;;;;;;;;;;;25.79;57.65;100600.44;5031450;28;1601;-66
2021/07/04 01:51:35;;;;;;;;;;;;;;;25.82;57.80;100594.84;5037492;28;1052;-67
2021/07/04 01:54:21;;;;;;;;;;;;;;;25.78;57.40;100588.09;5047553;28;718;-67
2021/07/04 01:57:12;;;;;;;;;;;;;;;25.79;57.31;100579.09;5047664;28;1265;-66
2021/07/04 01:59:59;;;;;;;;;;;;;;;25.79;57.70;100577.28;5027635;28;1906;-66
2021/07/04 02:02:46;;;;;;;;;;;;;;;25.82;57.26;100581.50;5027922;28;1271;-66
2021/07/04 02:05:32;;;;;;;;;;;;;;;25.76;57.37;100580.22;5027594;28;1062;-65
2021/07/04 02:08:17;;;;;;;;;;;;;;;25.70;57.81;100571.94;5027710;28;1249;-69
2021/07/04 02:11:05;;;;;;;;;;;;;;;25.77;57.53;100575.75;5040361;28;1086;-67
2021/07/04 02:13:51;;;;;;;;;;;;;;;25.77;57.01;100571.25;5027536;28;1296;-66
2021/07/04 02:16:36;;;;;;;;;;;;;;;25.76;57.15;100561.56;5028128;28;1188;-67
2021/07/04 02:19:29;;;;;;;;;;;;;;;25.77;57.18;100557.06;5027340;28;1977;-67
2021/07/04 02:22:15;;;;;;;;;;;;;;;25.77;57.35;100555.25;5027616;28;1263;-67
2021/07/04 02:25:00;;;;;;;;;;;;;;;25.75;57.28;100548.34;5027743;28;955;-67
2021/07/04 02:27:45;;;;;;;;;;;;;;;25.78;56.72;100556.06;5027440;28;1326;-67
2021/07/04 02:30:31;;;;;;;;;;;;;;;25.77;56.57;100557.06;5027905;28;1037;-67
2021/07/04 02:33:18;;;;;;;;;;;;;;;25.72;56.60;100546.78;5026462;28;1339;-67
2021/07/04 02:36:03;;;;;;;;;;;;;;;25.64;57.36;100548.47;5027665;28;986;-68
2021/07/04 02:38:49;;;;;;;;;;;;;;;25.74;56.70;100544.00;5027364;28;1264;-67
2021/07/04 02:41:34;;;;;;;;;;;;;;;25.67;57.15;100542.84;5032587;28;1099;-66
2021/07/04 02:44:19;;;;;;;;;;;;;;;25.68;57.18;100549.88;5047371;28;573;-66
2021/07/04 02:47:05;;;;;;;;;;;;;;;25.69;57.07;100546.22;5060679;28;1377;-66
2021/07/04 02:49:50;;;;;;;;;;;;;;;25.65;57.22;100537.69;5047232;28;1130;-67
2021/07/04 02:52:35;;;;;;;;;;;;;;;25.66;56.87;100531.34;5049371;28;1263;-66
2021/07/04 02:55:24;;;;;;;;;;;;;;;25.70;57.28;100532.75;5051077;28;1073;-66
2021/07/04 02:58:10;;;;;;;;;;;;;;;25.69;56.99;100530.22;5051004;28;1373;-66
2021/07/04 03:00:55;;;;;;;;;;;;;;;25.59;57.49;100530.22;5050917;28;1898;-66
2021/07/04 03:03:40;;;;;;;;;;;;;;;25.59;57.45;100522.22;5050740;28;1258;-67
2021/07/04 03:06:26;;;;;;;;;;;;;;;25.60;57.95;100526.53;5051075;28;1042;-66
2021/07/04 03:09:11;;;;;;;;;;;;;;;25.62;57.73;100534.44;5050622;28;679;-67
2021/07/04 03:11:56;;;;;;;;;;;;;;;25.59;58.12;100532.88;5050430;28;1255;-66
2021/07/04 03:14:41;;;;;;;;;;;;;;;25.62;58.05;100529.09;5050588;28;968;-66
2021/07/04 03:17:27;;;;;;;;;;;;;;;25.62;57.81;100535.28;5050328;28;1266;-66
2021/07/04 03:20:13;;;;;;;;;;;;;;;25.65;57.96;100537.69;5050758;28;1905;-65
2021/07/04 03:22:58;;;;;;;;;;;;;;;25.66;57.99;100543.81;5050305;28;1229;-66
2021/07/04 03:25:44;;;;;;;;;;;;;;;25.67;57.59;100553.53;5049995;28;931;-66
2021/07/04 03:28:29;;;;;;;;;;;;;;;25.66;57.42;100547.34;5050309;28;1290;-66
2021/07/04 03:31:14;;;;;;;;;;;;;;;25.66;57.66;100549.16;5048888;28;1195;-66
2021/07/04 03:34:00;;;;;;;;;;;;;;;25.64;57.59;100549.31;5049949;28;1380;-67
2021/07/04 03:36:45;;;;;;;;;;;;;;;25.65;57.63;100543.00;5050443;28;1299;-66
2021/07/04 03:39:30;;;;;;;;;;;;;;;25.67;57.54;100540.19;5049938;28;1952;-66
2021/07/04 03:42:15;;;;;;;;;;;;;;;25.65;57.40;100550.16;5062674;28;1193;-66
2021/07/04 03:45:01;;;;;;;;;;;;;;;25.65;56.98;100547.50;5062838;28;1057;-67
2021/07/04 03:47:46;;;;;;;;;;;;;;;25.62;57.02;100545.09;5050032;28;1350;-67
2021/07/04 03:50:32;;;;;;;;;;;;;;;25.61;56.49;100548.75;5050029;28;1135;-66
2021/07/04 03:53:18;;;;;;;;;;;;;;;25.59;56.56;100551.56;5062397;28;1249;-66
2021/07/04 03:56:03;;;;;;;;;;;;;;;25.58;56.72;100544.53;5049514;28;1106;-65
2021/07/04 03:58:49;;;;;;;;;;;;;;;25.61;57.04;100546.06;5049694;28;1331;-66
2021/07/04 04:01:34;;;;;;;;;;;;;;;25.60;56.94;100547.03;5049839;28;1902;-66
2021/07/04 04:04:19;;;;;;;;;;;;;;;25.59;56.92;100550.72;5048694;28;723;-66
2021/07/04 04:07:05;;;;;;;;;;;;;;;25.57;56.57;100555.31;5049387;28;1340;-66
2021/07/04 04:09:51;;;;;;;;;;;;;;;25.52;56.96;100551.25;5049205;28;961;-66
2021/07/04 04:12:37;;;;;;;;;;;;;;;25.60;56.44;100552.38;5049180;28;1394;-66
2021/07/04 04:15:23;;;;;;;;;;;;;;;25.58;56.43;100544.53;5049420;28;919;-67
2021/07/04 04:18:08;;;;;;;;;;;;;;;25.56;56.16;100550.97;5048938;28;1469;-66
2021/07/04 04:20:55;;;;;;;;;;;;;;;25.61;56.23;100557.59;5049144;28;1973;-66
2021/07/04 04:23:40;;;;;;;;;;;;;;;25.57;56.17;100552.66;5049034;28;1168;-66
2021/07/04 04:26:26;;;;;;;;;;;;;;;25.57;56.05;100550.81;5048862;28;1576;-66
2021/07/04 04:29:11;;;;;;;;;;;;;;;25.62;55.55;100551.28;5049150;28;556;-66
2021/07/04 04:31:59;;;;;;;;;;;;;;;25.60;55.79;100552.38;5048850;28;1370;-66
2021/07/04 04:34:45;;;;;;;;;;;;;;;25.60;55.34;100544.38;5061622;28;1006;-67
2021/07/04 04:37:30;;;;;;;;;;;;;;;25.57;55.00;100552.66;5062130;28;1280;-67
2021/07/04 04:40:15;;;;;;;;;;;;;;;25.59;54.84;100556.03;5048746;28;1886;-66
2021/07/04 04:43:01;;;;;;;;;;;;;;;25.51;54.68;100544.22;5048914;28;1368;-67
2021/07/04 04:45:46;;;;;;;;;;;;;;;25.56;54.83;100550.97;5049096;28;1079;-67
2021/07/04 04:48:32;;;;;;;;;;;;;;;25.58;55.05;100554.34;5048803;28;1359;-66
2021/07/04 04:51:17;;;;;;;;;;;;;;;25.56;55.25;100553.66;5048797;28;1035;-65
2021/07/04 04:54:03;;;;;;;;;;;;;;;25.55;55.42;100555.47;5048617;28;1381;-66
2021/07/04 04:56:49;;;;;;;;;;;;;;;25.54;55.35;100567.94;5048606;28;1288;-66
2021/07/04 04:59:35;;;;;;;;;;;;;;;25.57;55.27;100557.97;5048130;28;1101;-63
2021/07/04 05:02:20;;;;;;;;;;;;;;;25.54;55.30;100565.28;5048498;28;1367;-66
2021/07/04 05:05:07;;;;;;;;;;;;;;;25.57;55.10;100560.66;5048350;28;963;-67
2021/07/04 05:07:52;;;;;;;;;;;;;;;25.44;55.19;100566.22;5048577;28;1249;-67
2021/07/04 05:10:37;;;;;;;;;;;;;;;25.51;55.10;100552.22;5048125;28;624;-67
2021/07/04 05:13:23;;;;;;;;;;;;;;;25.54;54.98;100551.94;5048324;28;1324;-67
2021/07/04 05:16:09;;;;;;;;;;;;;;;25.57;54.73;100553.50;5047010;28;691;-66
2021/07/04 05:18:54;;;;;;;;;;;;;;;25.57;54.61;100548.16;5060646;28;1686;-66
2021/07/04 05:21:40;;;;;;;;;;;;;;;25.55;54.49;100544.78;5047518;28;1961;-67
2021/07/04 05:24:25;;;;;;;;;;;;;;;25.54;54.56;100548.44;5047659;28;663;-67
2021/07/04 05:27:11;;;;;;;;;;;;;;;25.46;54.52;100549.09;5044186;28;1480;-65
2021/07/04 05:29:56;;;;;;;;;;;;;;;25.32;54.31;100532.63;5035763;28;641;-67
2021/07/04 05:32:41;;;;;;;;;;;;;;;25.41;54.67;100548.63;5027467;28;1268;-65
2021/07/04 05:35:28;;;;;;;;;;;;;;;25.47;54.49;100552.59;5026966;28;640;-64
2021/07/04 05:38:22;;;;;;;;;;;;;;;25.49;54.37;100556.00;5027062;28;1258;-64
2021/07/04 05:41:09;;;;;;;;;;;;;;;25.51;53.91;100554.03;5027389;28;1902;-64
2021/07/04 05:43:54;;;;;;;;;;;;;;;25.54;53.86;100551.94;5027326;28;1236;-66
2021/07/04 05:46:39;;;;;;;;;;;;;;;25.48;54.03;100541.81;5027453;28;1320;-66
2021/07/04 05:49:25;;;;;;;;;;;;;;;25.49;54.27;100540.00;5025809;28;676;-64
2021/07/04 05:52:10;;;;;;;;;;;;;;;25.56;54.03;100546.50;5027049;28;1355;-64
2021/07/04 05:54:56;;;;;;;;;;;;;;;25.51;53.42;100543.38;5027137;28;644;-64
2021/07/04 05:57:41;;;;;;;;;;;;;;;25.49;53.75;100543.53;5027071;28;1280;-66
2021/07/04 06:00:26;;;;;;;;;;;;;;;25.50;53.66;100541.69;5027016;28;1903;-67
2021/07/04 06:03:13;;;;;;;;;;;;;;;25.54;53.13;100546.63;5027084;28;1276;-66
2021/07/04 06:05:58;;;;;;;;;;;;;;;25.53;53.60;100554.75;5026855;28;735;-68
2021/07/04 06:08:44;;;;;;;;;;;;;;;25.49;54.47;100548.84;5027427;28;1300;-65
2021/07/04 06:11:29;;;;;;;;;;;;;;;25.49;54.91;100546.19;5027278;28;1046;-64
2021/07/04 06:14:14;;;;;;;;;;;;;;;25.54;56.21;100540.44;5027223;28;680;-64
2021/07/04 06:16:59;;;;;;;;;;;;;;;25.61;56.41;100540.72;5027321;28;1261;-66
2021/07/04 06:19:45;;;;;;;;;;;;;;;25.66;56.40;100542.00;5025483;28;1715;-67
2021/07/04 06:22:30;;;;;;;;;;;;;;;25.65;57.34;100547.50;5026480;28;1295;-66
2021/07/04 06:25:16;;;;;;;;;;;;;;;25.69;57.19;100541.72;5026503;28;631;-64
2021/07/04 06:28:02;;;;;;;;;;;;;;;25.74;57.43;100544.00;5039793;28;1558;-65
2021/07/04 06:30:48;;;;;;;;;;;;;;;25.73;57.03;100547.66;5050497;28;706;-64
2021/07/04 06:33:33;;;;;;;;;;;;;;;25.72;57.39;100551.28;5050441;28;1329;-67
2021/07/04 06:36:19;;;;;;;;;;;;;;;25.70;57.72;100553.25;5049992;28;694;-64
2021/07/04 06:39:05;;;;;;;;;;;;;;;25.76;57.59;100547.38;5050109;28;669;-64
2021/07/04 06:41:50;;;;;;;;;;;;;;;25.76;57.78;100548.22;5049686;28;1902;-64
2021/07/04 06:44:36;;;;;;;;;;;;;;;25.80;57.28;100540.78;5050714;28;664;-64
2021/07/04 06:47:21;;;;;;;;;;;;;;;25.76;57.37;100545.56;5050914;28;1261;-66
2021/07/04 06:50:08;;;;;;;;;;;;;;;25.78;57.20;100540.06;5043677;28;1368;-65
2021/07/04 06:52:54;;;;;;;;;;;;;;;25.81;57.09;100545.97;5030388;28;1217;-65
2021/07/04 06:55:39;;;;;;;;;;;;;;;25.73;56.87;100545.81;5030179;28;632;-65
2021/07/04 06:58:24;;;;;;;;;;;;;;;25.74;56.71;100552.00;5030969;28;1346;-63
2021/07/04 07:01:12;;;;;;;;;;;;;;;25.77;56.28;100546.41;5030434;28;1902;-64
2021/07/04 07:03:58;;;;;;;;;;;;;;;25.78;55.60;100548.91;5030528;28;1387;-64
2021/07/04 07:06:43;;;;;;;;;;;;;;;25.80;55.47;100538.13;5030536;28;1287;-63
2021/07/04 07:09:29;;;;;;;;;;;;;;;25.85;55.63;100538.53;5030437;28;685;-64
2021/07/04 07:12:15;;;;;;;;;;;;;;;25.86;55.25;100541.09;5030754;28;1327;-66
2021/07/04 07:15:00;;;;;;;;;;;;;;;25.85;55.51;100533.19;5030790;28;1507;-63
2021/07/04 07:17:46;;;;;;;;;;;;;;;25.89;55.33;100539.97;5045060;28;1463;-65
2021/07/04 07:20:31;;;;;;;;;;;;;;;25.89;54.98;100543.47;5050278;28;1906;-66
2021/07/04 07:23:16;;;;;;;;;;;;;;;25.89;54.79;100543.47;5049130;28;1371;-66
2021/07/04 07:26:02;;;;;;;;;;;;;;;25.87;54.88;100557.94;5050080;28;556;-66
2021/07/04 07:28:47;;;;;;;;;;;;;;;25.91;54.61;100554.00;5050688;28;1248;-64
2021/07/04 07:31:36;;;;;;;;;;;;;;;25.93;54.56;100549.38;5049942;28;1084;-65
2021/07/04 07:34:21;;;;;;;;;;;;;;;25.94;54.67;100546.56;5049994;28;652;-66
2021/07/04 07:37:07;;;;;;;;;;;;;;;25.94;54.55;100541.22;5050128;28;1224;-64
2021/07/04 07:39:56;;;;;;;;;;;;;;;25.96;54.72;100547.25;5048929;28;651;-66
2021/07/04 07:42:42;;;;;;;;;;;;;;;25.96;54.72;100549.13;5049741;28;1268;-66
2021/07/04 07:45:27;;;;;;;;;;;;;;;25.98;54.55;100550.66;5046388;28;1526;-65
2021/07/04 07:48:13;;;;;;;;;;;;;;;26.01;54.66;100561.06;5029769;28;1341;-64
2021/07/04 07:51:05;;;;;;;;;;;;;;;26.02;55.04;100548.56;5028154;28;818;-68
2021/07/04 07:53:50;;;;;;;;;;;;;;;26.02;54.91;100529.88;5028311;28;1256;-68
2021/07/04 07:56:36;;;;;;;;;;;;;;;26.04;55.22;100530.56;5029495;28;1033;-67
2021/07/04 07:59:21;;;;;;;;;;;;;;;26.04;55.54;100531.41;5029108;28;652;-67
2021/07/04 08:02:07;;;;;;;;;;;;;;;26.05;55.46;100537.59;5029568;28;1927;-66
2021/07/04 08:04:53;;;;;;;;;;;;;;;26.10;55.47;100535.34;5036596;28;660;-70
2021/07/04 08:07:40;;;;;;;;;;;;;;;26.16;55.82;100540.16;5049729;28;1263;-68
2021/07/04 08:10:26;;;;;;;;;;;;;;;26.18;55.76;100543.53;5048851;28;715;-71
2021/07/04 08:13:12;;;;;;;;;;;;;;;26.17;55.78;100530.31;5049064;28;1339;-67
2021/07/04 08:15:57;;;;;;;;;;;;;;;26.19;55.92;100533.69;5049004;28;719;-67
2021/07/04 08:18:43;;;;;;;;;;;;;;;26.23;55.74;100527.09;5048958;28;1364;-67
2021/07/04 08:21:29;;;;;;;;;;;;;;;26.22;55.74;100528.06;5048622;28;1906;-70
2021/07/04 08:24:14;;;;;;;;;;;;;;;26.20;55.23;100520.22;5056480;28;1535;-69
2021/07/04 08:26:59;;;;;;;;;;;;;;;26.20;55.71;100520.22;5041775;28;1261;-69
2021/07/04 08:29:44;;;;;;;;;;;;;;;26.28;55.83;100524.84;5048394;28;612;-70
2021/07/04 08:32:30;;;;;;;;;;;;;;;26.30;55.87;100529.03;5048431;28;1264;-69
2021/07/04 08:35:15;;;;;;;;;;;;;;;26.30;55.80;100528.19;5047452;28;675;-73
2021/07/04 08:38:00;;;;;;;;;;;;;;;26.29;56.06;100534.53;5048726;28;1319;-72
2021/07/04 08:40:46;;;;;;;;;;;;;;;26.30;55.90;100534.38;5048439;28;1882;-69
2021/07/04 08:43:32;;;;;;;;;;;;;;;26.31;56.07;100533.41;5061617;28;1366;-67
2021/07/04 08:46:18;;;;;;;;;;;;;;;26.34;55.85;100533.13;5048654;28;628;-68
2021/07/04 08:49:04;;;;;;;;;;;;;;;26.34;56.16;100533.13;5047856;28;1314;-64
2021/07/04 08:51:49;;;;;;;;;;;;;;;26.39;56.22;100530.88;5048021;28;1201;-68
2021/07/04 08:54:35;;;;;;;;;;;;;;;26.44;55.70;100527.78;5048090;28;573;-66
2021/07/04 08:57:20;;;;;;;;;;;;;;;26.39;55.44;100530.88;5048138;28;1236;-66
2021/07/04 09:00:06;;;;;;;;;;;;;;;26.52;55.39;100525.25;5043068;28;1372;-69
2021/07/04 09:02:54;;;;;;;;;;;;;;;26.47;54.78;100533.69;5046561;28;1904;-67
2021/07/04 09:05:43;;;;;;;;;;;;;;;26.41;55.68;100528.91;5046430;28;742;-67
2021/07/04 09:08:28;;;;;;;;;;;;;;;26.38;55.62;100526.53;5047431;28;1275;-66
2021/07/04 09:11:24;;;;;;;;;;;;;;;26.40;55.13;100526.38;5048200;28;640;-66
2021/07/04 09:14:12;;;;;;;;;;;;;;;26.39;54.95;100530.88;5048532;28;883;-68
2021/07/04 09:16:58;;;;;;;;;;;;;;;26.42;54.73;100529.75;5048076;28;1333;-68
2021/07/04 09:19:54;;;;;;;;;;;;;;;26.39;55.55;100533.53;5048315;28;1729;-67
2021/07/04 09:22:41;;;;;;;;;;;;;;;26.42;55.27;100530.59;5048214;28;1962;-68
2021/07/04 09:25:27;;;;;;;;;;;;;;;26.40;55.40;100523.72;5048189;28;682;-68
2021/07/04 09:28:18;;;;;;;;;;;;;;;26.40;55.56;100527.22;5048543;28;1334;-67
2021/07/04 09:31:03;;;;;;;;;;;;;;;26.40;55.23;100526.38;5048503;28;625;-67
2021/07/04 09:34:00;;;;;;;;;;;;;;;26.42;55.86;100530.59;5048311;28;1280;-68
2021/07/04 09:36:48;;;;;;;;;;;;;;;26.42;55.86;100525.25;5047890;28;1252;-67
2021/07/04 09:39:33;;;;;;;;;;;;;;;26.43;56.09;100521.59;5048013;28;727;-68
2021/07/04 09:42:19;;;;;;;;;;;;;;;26.43;55.95;100523.41;5047918;28;1905;-68
2021/07/04 09:45:04;;;;;;;;;;;;;;;26.43;56.25;100521.59;5048192;28;624;-68
2021/07/04 09:47:56;;;;;;;;;;;;;;;26.46;56.58;100529.31;5048016;28;1308;-66
2021/07/04 09:50:48;;;;;;;;;;;;;;;26.46;56.66;100526.66;5047799;28;679;-69
2021/07/04 09:53:34;;;;;;;;;;;;;;;26.46;56.67;100521.31;5047949;28;1241;-68
2021/07/04 09:56:23;;;;;;;;;;;;;;;26.45;56.77;100532.13;5047589;28;640;-68
2021/07/04 09:59:20;;;;;;;;;;;;;;;26.47;57.05;100536.38;5047924;28;636;-67
2021/07/04 10:02:13;;;;;;;;;;;;;;;26.49;57.10;100542.41;5047540;28;1985;-68
2021/07/04 10:05:11;;;;;;;;;;;;;;;26.49;57.03;100534.38;5051785;28;658;-68
2021/07/04 10:07:59;;;;;;;;;;;;;;;26.50;57.43;100537.91;5064641;28;1292;-67
2021/07/04 10:10:45;;;;;;;;;;;;;;;26.49;57.15;100537.06;5051671;28;719;-67
2021/07/04 10:13:36;;;;;;;;;;;;;;;26.51;57.49;100544.91;5065011;28;1260;-68
2021/07/04 10:16:22;;;;;;;;;;;;;;;26.51;57.31;100548.44;5051488;28;675;-69
2021/07/04 10:19:09;;;;;;;;;;;;;;;26.51;57.05;100545.75;5056024;28;1253;-66
2021/07/04 10:22:20;;;;;;;;;;;;;;;26.52;57.01;100554.63;5063544;28;1902;-68
2021/07/04 10:25:22;;;;;;;;;;;;;;;26.52;57.75;100560.81;5066148;28;635;-68
2021/07/04 10:28:11;;;;;;;;;;;;;;;26.52;57.28;100555.47;5054081;28;1262;-68
2021/07/04 10:30:58;;;;;;;;;;;;;;;26.51;57.20;100555.59;5053099;28;739;-68
2021/07/04 10:34:03;;;;;;;;;;;;;;;26.55;57.31;100557.00;5052236;28;1315;-68
2021/07/04 10:36:52;;;;;;;;;;;;;;;26.56;57.74;100559.56;5052112;28;1268;-68
2021/07/04 10:39:37;;;;;;;;;;;;;;;26.55;57.47;100560.53;5064589;28;1056;-67
2021/07/04 10:42:34;;;;;;;;;;;;;;;26.54;57.61;100556.16;5051243;28;1898;-66
2021/07/04 10:45:37;;;;;;;;;;;;;;;26.54;57.25;100560.66;5051704;28;1150;-68
2021/07/04 10:48:26;;;;;;;;;;;;;;;26.56;57.68;100559.56;5064158;28;1374;-69
2021/07/04 10:51:20;;;;;;;;;;;;;;;26.56;57.29;100559.56;5047901;28;970;-66
2021/07/04 10:54:06;;;;;;;;;;;;;;;26.58;57.93;100570.06;5048083;28;947;-67
2021/07/04 10:57:03;;;;;;;;;;;;;;;26.58;57.76;100562.91;5048255;28;1323;-67
2021/07/04 10:59:48;;;;;;;;;;;;;;;26.58;57.60;100557.56;5048228;28;1197;-68
2021/07/04 11:02:44;;;;;;;;;;;;;;;26.57;58.49;100569.22;5048059;28;1977;-68
2021/07/04 11:05:41;;;;;;;;;;;;;;;26.58;57.88;100565.59;5047715;28;1132;-68
2021/07/04 11:08:28;;;;;;;;;;;;;;;26.60;58.79;100566.28;5047938;28;1203;-68
2021/07/04 11:11:13;;;;;;;;;;;;;;;26.63;58.39;100575.00;5047828;28;659;-67
2021/07/04 11:14:07;;;;;;;;;;;;;;;26.61;58.67;100575.97;5047523;28;1319;-67
2021/07/04 11:17:03;;;;;;;;;;;;;;;26.63;58.99;100575.81;5047629;28;1382;-67
2021/07/04 11:20:07;;;;;;;;;;;;;;;26.63;58.32;100587.34;5047505;28;1730;-67
2021/07/04 11:22:57;;;;;;;;;;;;;;;26.66;59.09;100585.41;5047383;28;1906;-67
2021/07/04 11:25:48;;;;;;;;;;;;;;;26.66;58.58;100590.75;5047340;28;1040;-68
2021/07/04 11:28:37;;;;;;;;;;;;;;;26.68;58.54;100586.09;5048339;28;1346;-67
2021/07/04 11:31:23;;;;;;;;;;;;;;;26.68;58.56;100586.09;5050131;28;624;-67
2021/07/04 11:34:11;;;;;;;;;;;;;;;26.71;58.32;100588.50;5050417;28;1124;-67
2021/07/04 11:36:56;;;;;;;;;;;;;;;26.71;57.59;100588.50;5050141;28;1230;-68
2021/07/04 11:39:54;;;;;;;;;;;;;;;26.71;56.89;100591.16;5050157;28;1058;-67
2021/07/04 11:42:39;;;;;;;;;;;;;;;26.73;57.26;100602.53;5049910;28;1910;-68
2021/07/04 11:45:25;;;;;;;;;;;;;;;26.76;57.38;100596.91;5046280;28;1408;-67
2021/07/04 11:48:10;;;;;;;;;;;;;;;26.78;56.72;100606.47;5038519;28;1448;-67
2021/07/04 11:50:56;;;;;;;;;;;;;;;26.78;56.65;100601.13;5048536;28;1287;-67
2021/07/04 11:53:49;;;;;;;;;;;;;;;26.81;56.15;100605.41;5037442;28;1351;-66
2021/07/04 11:56:36;;;;;;;;;;;;;;;26.79;56.94;100604.63;5066651;28;694;-67
2021/07/04 11:59:25;;;;;;;;;;;;;;;26.82;57.12;100605.25;5047687;28;1533;-64
2021/07/04 12:02:11;;;;;;;;;;;;;;;26.94;57.31;100600.56;5036006;28;1902;-62
2021/07/04 12:04:56;;;;;;;;;;;;;;;26.89;57.94;100600.16;5031012;28;1512;-65
2021/07/04 12:07:42;;;;;;;;;;;;;;;26.70;56.05;100610.84;5046402;28;1391;-66
2021/07/04 12:10:28;;;;;;;;;;;;;;;26.54;55.96;100608.72;5049935;28;1005;-67
2021/07/04 12:13:13;;;;;;;;;;;;;;;26.51;55.40;100625.03;5050153;28;1324;-69
2021/07/04 12:16:02;;;;;;;;;;;;;;;26.49;55.29;100621.69;5046154;28;1095;-69
2021/07/04 12:18:52;;;;;;;;;;;;;;;26.45;54.78;100642.47;5043509;28;1432;-68
2021/07/04 12:21:37;;;;;;;;;;;;;;;26.42;54.24;100636.56;5046611;28;1996;-66
2021/07/04 12:24:34;;;;;;;;;;;;;;;26.36;53.65;100631.78;5044916;28;1142;-67
2021/07/04 12:27:31;;;;;;;;;;;;;;;26.33;53.48;100632.06;5071408;28;1292;-65
2021/07/04 12:30:21;;;;;;;;;;;;;;;26.28;53.50;100629.81;5045793;28;1063;-64
2021/07/04 12:33:08;;;;;;;;;;;;;;;26.24;53.34;100628.41;5046022;28;1458;-65
2021/07/04 12:35:55;;;;;;;;;;;;;;;26.19;53.06;100630.66;5043732;28;1148;-68
2021/07/04 12:38:42;;;;;;;;;;;;;;;26.17;53.10;100634.44;5041758;28;1691;-66
2021/07/04 12:41:33;;;;;;;;;;;;;;;26.01;52.28;100642.94;5042960;28;1898;-69
2021/07/04 12:44:18;;;;;;;;;;;;;;;26.08;53.52;100644.09;5043160;28;1690;-68
2021/07/04 12:47:10;;;;;;;;;;;;;;;26.11;53.36;100645.63;5043247;28;1698;-70
2021/07/04 12:50:04;;;;;;;;;;;;;;;26.00;53.30;100647.44;5043915;28;1192;-67
2021/07/04 12:52:56;;;;;;;;;;;;;;;26.05;53.33;100641.69;5045077;28;1276;-67
2021/07/04 12:55:48;;;;;;;;;;;;;;;26.05;52.92;100655.03;5044879;28;1139;-65
2021/07/04 12:58:35;;;;;;;;;;;;;;;26.02;52.76;100661.47;5044133;28;1449;-66
2021/07/04 13:01:22;;;;;;;;;;;;;;;26.02;52.24;100661.47;5045441;28;1171;-67
2021/07/04 13:04:12;;;;;;;;;;;;;;;25.97;51.75;100663.72;5046253;28;1055;-66
2021/07/04 13:06:57;;;;;;;;;;;;;;;25.92;51.82;100663.28;5045050;28;1367;-67
2021/07/04 13:09:44;;;;;;;;;;;;;;;25.92;51.80;100670.44;5047206;28;1000;-66
2021/07/04 13:12:37;;;;;;;;;;;;;;;25.88;51.72;100669.00;5044021;28;1299;-64
2021/07/04 13:15:23;;;;;;;;;;;;;;;25.86;51.30;100668.31;5045704;28;1257;-65
2021/07/04 13:18:23;;;;;;;;;;;;;;;25.83;51.29;100672.09;5044078;28;1679;-64
2021/07/04 13:21:08;;;;;;;;;;;;;;;25.84;50.94;100672.97;5045973;28;1131;-64
2021/07/04 13:24:12;;;;;;;;;;;;;;;25.81;50.96;100674.03;5042882;28;1961;-62
2021/07/04 13:27:02;;;;;;;;;;;;;;;25.74;50.32;100682.72;5059208;28;1256;-63
2021/07/04 13:29:47;;;;;;;;;;;;;;;25.71;50.33;100670.50;5044124;28;1329;-65
2021/07/04 13:32:33;;;;;;;;;;;;;;;25.60;50.69;100677.72;5046164;28;1347;-64
2021/07/04 13:35:19;;;;;;;;;;;;;;;25.66;50.69;100682.53;5043772;28;1126;-64
2021/07/04 13:38:09;;;;;;;;;;;;;;;25.84;51.31;100687.13;5043787;28;1280;-64
2021/07/04 13:40:57;;;;;;;;;;;;;;;25.96;51.59;100678.03;5041401;28;1231;-63
2021/07/04 13:43:42;;;;;;;;;;;;;;;26.04;52.36;100674.69;5044262;28;1902;-63
2021/07/04 13:46:34;;;;;;;;;;;;;;;26.14;53.54;100678.25;5045178;28;1142;-63
2021/07/04 13:49:20;;;;;;;;;;;;;;;26.19;54.06;100689.38;5043256;28;1173;-63
2021/07/04 13:52:06;;;;;;;;;;;;;;;26.24;54.35;100699.63;5045921;28;1216;-64
2021/07/04 13:54:51;;;;;;;;;;;;;;;26.27;55.03;100702.88;5043898;28;1139;-62
2021/07/04 13:57:36;;;;;;;;;;;;;;;26.30;55.14;100699.94;5044267;28;1300;-63
2021/07/04 14:00:22;;;;;;;;;;;;;;;26.34;55.63;100697.84;5046042;28;1030;-63
2021/07/04 14:03:08;;;;;;;;;;;;;;;26.36;55.83;100702.06;5044450;28;1894;-64
2021/07/04 14:05:54;;;;;;;;;;;;;;;26.38;55.92;100705.47;5043076;28;1158;-63
2021/07/04 14:08:39;;;;;;;;;;;;;;;26.41;56.11;100707.00;5045336;28;1272;-63
2021/07/04 14:11:24;;;;;;;;;;;;;;;26.44;56.37;100704.91;5044199;28;1106;-64
2021/07/04 14:14:10;;;;;;;;;;;;;;;26.46;56.69;100707.44;5044703;28;1195;-63
2021/07/04 14:16:57;;;;;;;;;;;;;;;26.47;56.71;100709.13;5043232;28;1228;-64
2021/07/04 14:19:46;;;;;;;;;;;;;;;26.47;56.50;100704.63;5043705;28;1472;-65
2021/07/04 14:22:31;;;;;;;;;;;;;;;26.50;57.10;100698.16;5044301;28;1981;-65
2021/07/04 14:25:18;;;;;;;;;;;;;;;26.51;57.38;100711.38;5042493;28;1134;-66
2021/07/04 14:28:04;;;;;;;;;;;;;;;26.52;57.10;100701.53;5043351;28;1296;-64
2021/07/04 14:30:51;;;;;;;;;;;;;;;26.53;57.11;100704.06;5044707;28;1146;-66